Time;durP1;ratioP1;P1;durP2;ratioP2;P2;SDS_P1;SDS_P2;PMS_P1;PMS_P2;Temp;Humidity;BMP_temperature;BMP_pressure;BME280_temperature;BME280_humidity;BME280_pressure;Samples;Min_cycle;Max_cycle;Signal;HPM_P1;HPM_P2
2024/01/19 00:00:02;;;;;;;9.95;7.82;;;;;;;;;;5041775;28;20028;-76
2024/01/19 00:02:27;;;;;;;13.43;11.35;;;;;;;;;;5044057;28;20038;-71
2024/01/19 00:04:53;;;;;;;19.50;16.67;;;;;;;;;;5066943;28;20407;-76
2024/01/19 00:07:18;;;;;;;16.85;15.05;;;;;;;;;;5076728;28;20682;-82
2024/01/19 00:09:44;;;;;;;39.30;35.35;;;;;;;;;;5073359;28;20020;-76
2024/01/19 00:12:09;;;;;;;16.42;14.23;;;;;;;;;;5063215;28;20144;-76
2024/01/19 00:14:34;;;;;;;8.38;7.20;;;;;;;;;;5064575;28;20070;-79
2024/01/19 00:17:00;;;;;;;7.03;5.53;;;;;;;;;;5064829;28;20051;-78
2024/01/19 00:19:26;;;;;;;8.25;6.95;;;;;;;;;;5063789;28;20399;-80
2024/01/19 00:21:51;;;;;;;4.13;3.72;;;;;;;;;;5063962;28;20020;-77
2024/01/19 00:24:16;;;;;;;5.55;4.80;;;;;;;;;;5043335;28;20039;-78
2024/01/19 00:26:47;;;;;;;6.72;4.55;;;;;;;;;;5062063;28;20078;-78
2024/01/19 00:29:12;;;;;;;5.53;4.70;;;;;;;;;;5044802;28;20085;-78
2024/01/19 00:31:38;;;;;;;12.35;10.63;;;;;;;;;;5059257;28;20047;-76
2024/01/19 00:34:03;;;;;;;11.00;9.38;;;;;;;;;;5082954;28;20032;-79
2024/01/19 00:36:28;;;;;;;11.50;9.82;;;;;;;;;;5083172;28;20019;-76
2024/01/19 00:38:54;;;;;;;19.83;17.58;;;;;;;;;;5084124;28;20028;-77
2024/01/19 00:41:20;;;;;;;13.40;12.00;;;;;;;;;;5084262;28;21201;-79
2024/01/19 00:43:45;;;;;;;12.80;9.98;;;;;;;;;;5084466;28;20035;-77
2024/01/19 00:46:11;;;;;;;14.88;10.95;;;;;;;;;;5083640;28;20394;-78
2024/01/19 00:48:36;;;;;;;13.90;11.25;;;;;;;;;;5085341;28;20108;-78
2024/01/19 00:51:02;;;;;;;10.15;6.82;;;;;;;;;;5082398;28;20024;-78
2024/01/19 00:53:27;;;;;;;6.32;2.70;;;;;;;;;;5085513;28;20015;-78
2024/01/19 00:55:53;;;;;;;5.97;3.67;;;;;;;;;;5088132;28;20115;-78
2024/01/19 00:58:18;;;;;;;7.82;4.95;;;;;;;;;;5085658;28;20208;-78
2024/01/19 01:00:43;;;;;;;9.68;6.72;;;;;;;;;;5086758;28;20081;-76
2024/01/19 01:03:09;;;;;;;13.68;9.63;;;;;;;;;;5088221;28;20031;-75
2024/01/19 01:05:34;;;;;;;13.73;8.88;;;;;;;;;;5087619;28;20801;-75
2024/01/19 01:08:00;;;;;;;13.80;9.15;;;;;;;;;;5088473;28;20123;-77
2024/01/19 01:10:25;;;;;;;11.25;9.63;;;;;;;;;;5087163;27;20019;-80
2024/01/19 01:12:50;;;;;;;12.98;9.65;;;;;;;;;;5089534;28;20031;-77
2024/01/19 01:15:16;;;;;;;33.03;24.45;;;;;;;;;;5087883;28;20024;-77
2024/01/19 01:17:41;;;;;;;10.52;7.18;;;;;;;;;;5085237;28;20038;-77
2024/01/19 01:20:09;;;;;;;9.02;6.13;;;;;;;;;;5085787;28;20111;-77
2024/01/19 01:22:35;;;;;;;9.98;7.25;;;;;;;;;;5087686;28;20089;-75
2024/01/19 01:25:00;;;;;;;24.27;18.20;;;;;;;;;;5087826;28;20189;-78
2024/01/19 01:27:26;;;;;;;74.93;49.50;;;;;;;;;;5086266;28;20034;-77
2024/01/19 01:29:51;;;;;;;23.33;14.85;;;;;;;;;;5087454;28;20077;-77
2024/01/19 01:32:16;;;;;;;10.10;6.55;;;;;;;;;;5073696;27;20320;-79
2024/01/19 01:34:42;;;;;;;6.13;4.22;;;;;;;;;;5065102;28;20032;-78
2024/01/19 01:37:07;;;;;;;5.78;3.75;;;;;;;;;;5060568;28;20059;-77
2024/01/19 01:39:32;;;;;;;4.70;3.15;;;;;;;;;;5078365;28;20036;-80
2024/01/19 01:41:58;;;;;;;17.65;14.13;;;;;;;;;;5081843;28;20028;-77
2024/01/19 01:44:23;;;;;;;29.65;25.25;;;;;;;;;;5068621;28;20016;-76
2024/01/19 01:46:48;;;;;;;23.60;18.58;;;;;;;;;;5066773;28;20043;-78
2024/01/19 01:49:14;;;;;;;19.77;13.82;;;;;;;;;;5080112;28;20111;-78
2024/01/19 01:51:40;;;;;;;20.52;17.15;;;;;;;;;;5079785;28;20043;-78
2024/01/19 01:54:07;;;;;;;24.42;18.25;;;;;;;;;;5077128;28;20436;-79
2024/01/19 01:56:32;;;;;;;11.00;9.48;;;;;;;;;;5088283;28;20031;-80
2024/01/19 01:58:58;;;;;;;18.83;14.40;;;;;;;;;;5072458;28;20054;-76
2024/01/19 02:01:23;;;;;;;21.70;17.77;;;;;;;;;;5086418;28;20051;-77
2024/01/19 02:03:49;;;;;;;29.88;24.15;;;;;;;;;;5079140;28;20457;-78
2024/01/19 02:06:15;;;;;;;27.50;21.50;;;;;;;;;;5078871;28;20016;-78
2024/01/19 02:08:40;;;;;;;42.25;36.10;;;;;;;;;;5078277;28;20490;-79
2024/01/19 02:11:06;;;;;;;31.23;24.83;;;;;;;;;;5065389;28;20035;-76
2024/01/19 02:13:31;;;;;;;30.10;23.67;;;;;;;;;;5055274;28;20107;-75
2024/01/19 02:16:00;;;;;;;15.25;11.55;;;;;;;;;;5055990;28;20031;-80
2024/01/19 02:18:25;;;;;;;18.90;14.43;;;;;;;;;;5077918;28;20223;-79
2024/01/19 02:20:51;;;;;;;32.78;26.20;;;;;;;;;;5066046;28;20030;-77
2024/01/19 02:23:16;;;;;;;27.65;22.70;;;;;;;;;;5070853;28;20688;-77
2024/01/19 02:25:42;;;;;;;20.10;14.68;;;;;;;;;;5070718;28;20915;-77
2024/01/19 02:28:07;;;;;;;18.38;15.02;;;;;;;;;;5069375;28;20419;-76
2024/01/19 02:30:33;;;;;;;22.05;17.88;;;;;;;;;;5076970;28;20040;-79
2024/01/19 02:32:59;;;;;;;22.38;18.15;;;;;;;;;;5078454;28;20037;-77
2024/01/19 02:35:24;;;;;;;24.45;17.92;;;;;;;;;;5066891;28;20024;-77
2024/01/19 02:37:50;;;;;;;16.02;11.15;;;;;;;;;;5049187;28;20032;-76
2024/01/19 02:40:15;;;;;;;13.73;10.75;;;;;;;;;;5047779;28;20155;-77
2024/01/19 02:42:40;;;;;;;15.48;9.45;;;;;;;;;;5069997;28;20324;-77
2024/01/19 02:45:06;;;;;;;12.60;9.45;;;;;;;;;;5075655;28;20028;-78
2024/01/19 02:47:32;;;;;;;13.38;8.38;;;;;;;;;;5069789;28;20020;-77
2024/01/19 02:49:58;;;;;;;27.52;22.55;;;;;;;;;;5068957;28;20050;-76
2024/01/19 02:52:23;;;;;;;13.10;9.00;;;;;;;;;;5065849;28;20042;-75
2024/01/19 02:54:48;;;;;;;6.20;4.63;;;;;;;;;;5049350;28;20475;-78
2024/01/19 02:57:14;;;;;;;16.13;12.77;;;;;;;;;;5070048;28;20025;-76
2024/01/19 02:59:39;;;;;;;15.93;9.65;;;;;;;;;;5079698;28;20064;-81
2024/01/19 03:02:05;;;;;;;8.48;5.75;;;;;;;;;;5052603;28;20032;-78
2024/01/19 03:04:30;;;;;;;14.68;8.27;;;;;;;;;;5072449;28;20391;-78
2024/01/19 03:06:56;;;;;;;15.32;11.95;;;;;;;;;;5078109;28;20024;-78
2024/01/19 03:09:22;;;;;;;20.90;13.57;;;;;;;;;;5071842;28;20027;-76
2024/01/19 03:11:47;;;;;;;23.67;19.30;;;;;;;;;;5059602;28;20071;-75
2024/01/19 03:14:12;;;;;;;12.23;8.82;;;;;;;;;;5070008;28;20096;-76
2024/01/19 03:16:44;;;;;;;9.88;7.57;;;;;;;;;;5073866;28;20036;-80
2024/01/19 03:19:09;;;;;;;10.93;7.55;;;;;;;;;;5047857;28;20035;-78
2024/01/19 03:21:35;;;;;;;12.27;9.38;;;;;;;;;;5064924;28;20427;-77
2024/01/19 03:24:00;;;;;;;8.60;6.30;;;;;;;;;;5045655;28;20656;-77
2024/01/19 03:26:25;;;;;;;7.95;6.78;;;;;;;;;;5064352;28;20023;-76
2024/01/19 03:28:51;;;;;;;13.05;9.63;;;;;;;;;;5077789;28;20028;-76
2024/01/19 03:31:16;;;;;;;13.45;11.10;;;;;;;;;;5076504;28;20062;-76
2024/01/19 03:33:41;;;;;;;10.10;8.05;;;;;;;;;;5072210;28;20070;-76
2024/01/19 03:36:07;;;;;;;16.25;10.55;;;;;;;;;;5072981;28;20036;-76
2024/01/19 03:38:32;;;;;;;9.60;6.47;;;;;;;;;;5058845;28;20020;-76
2024/01/19 03:40:58;;;;;;;10.07;7.93;;;;;;;;;;5072236;28;20023;-75
2024/01/19 03:43:24;;;;;;;15.65;10.48;;;;;;;;;;5052300;28;20142;-80
2024/01/19 03:45:49;;;;;;;21.02;13.93;;;;;;;;;;5057843;28;20111;-79
2024/01/19 03:48:14;;;;;;;18.05;10.57;;;;;;;;;;5058261;28;20107;-79
2024/01/19 03:50:40;;;;;;;21.80;15.40;;;;;;;;;;5057535;28;20025;-77
2024/01/19 03:53:05;;;;;;;18.73;14.43;;;;;;;;;;5077009;28;20032;-77
2024/01/19 03:55:30;;;;;;;19.33;14.25;;;;;;;;;;5077790;28;20041;-77
2024/01/19 03:57:56;;;;;;;12.63;8.48;;;;;;;;;;5073097;28;20032;-77
2024/01/19 04:00:21;;;;;;;10.00;6.38;;;;;;;;;;5072181;28;20032;-79
2024/01/19 04:02:46;;;;;;;9.48;6.60;;;;;;;;;;5057573;28;20029;-80
2024/01/19 04:05:12;;;;;;;14.27;9.57;;;;;;;;;;5076147;28;20123;-79
2024/01/19 04:07:37;;;;;;;16.23;9.57;;;;;;;;;;5078872;28;20088;-80
2024/01/19 04:10:03;;;;;;;10.60;8.15;;;;;;;;;;5077489;28;20454;-79
2024/01/19 04:12:29;;;;;;;8.20;5.55;;;;;;;;;;5076398;28;20070;-77
2024/01/19 04:14:55;;;;;;;7.15;4.43;;;;;;;;;;5062762;28;20052;-77
2024/01/19 04:17:20;;;;;;;6.15;3.50;;;;;;;;;;5074495;28;20031;-76
2024/01/19 04:19:46;;;;;;;5.30;3.95;;;;;;;;;;5077263;28;20318;-76
2024/01/19 04:22:11;;;;;;;6.00;4.30;;;;;;;;;;5067714;28;20114;-79
2024/01/19 04:24:37;;;;;;;8.07;4.65;;;;;;;;;;5075923;28;20099;-77
2024/01/19 04:27:02;;;;;;;6.72;4.63;;;;;;;;;;5068163;28;20024;-77
2024/01/19 04:29:28;;;;;;;9.60;6.22;;;;;;;;;;5076180;28;20446;-81
2024/01/19 04:31:53;;;;;;;8.20;5.70;;;;;;;;;;5066841;28;20607;-76
2024/01/19 04:34:19;;;;;;;10.20;8.05;;;;;;;;;;5057638;28;20444;-77
2024/01/19 04:36:45;;;;;;;7.68;5.63;;;;;;;;;;5075815;28;20044;-79
2024/01/19 04:39:11;;;;;;;7.07;5.22;;;;;;;;;;5074679;28;20039;-77
2024/01/19 04:41:36;;;;;;;8.27;4.80;;;;;;;;;;5059537;28;20338;-80
2024/01/19 04:44:02;;;;;;;6.72;4.22;;;;;;;;;;5066010;28;20123;-82
2024/01/19 04:46:28;;;;;;;6.88;4.57;;;;;;;;;;5069457;28;20443;-79
2024/01/19 04:48:53;;;;;;;8.55;5.85;;;;;;;;;;5066903;28;20032;-78
2024/01/19 04:51:18;;;;;;;8.77;6.10;;;;;;;;;;5056659;28;20047;-77
2024/01/19 04:53:44;;;;;;;7.88;6.07;;;;;;;;;;5076692;28;20457;-77
2024/01/19 04:56:10;;;;;;;9.00;6.82;;;;;;;;;;5076995;28;20024;-77
2024/01/19 04:58:36;;;;;;;9.10;5.45;;;;;;;;;;5075390;28;20032;-76
2024/01/19 05:01:02;;;;;;;13.15;8.98;;;;;;;;;;5069947;28;20020;-77
2024/01/19 05:03:27;;;;;;;12.75;9.45;;;;;;;;;;5070120;28;20104;-78
2024/01/19 05:05:52;;;;;;;16.73;11.73;;;;;;;;;;5076710;28;20027;-77
2024/01/19 05:08:18;;;;;;;13.13;8.90;;;;;;;;;;5067071;28;20111;-76
2024/01/19 05:10:43;;;;;;;8.77;6.53;;;;;;;;;;5067341;28;20107;-76
2024/01/19 05:13:08;;;;;;;9.38;6.57;;;;;;;;;;5071902;28;20028;-78
2024/01/19 05:15:34;;;;;;;11.82;8.43;;;;;;;;;;5067769;28;20369;-78
2024/01/19 05:18:00;;;;;;;11.40;7.97;;;;;;;;;;5069574;28;20036;-78
2024/01/19 05:20:26;;;;;;;11.45;8.73;;;;;;;;;;5043757;28;20039;-78
2024/01/19 05:22:51;;;;;;;10.93;8.30;;;;;;;;;;5059467;28;21095;-78
2024/01/19 05:25:18;;;;;;;11.55;8.43;;;;;;;;;;5060502;28;23630;-76
2024/01/19 05:27:44;;;;;;;9.98;7.63;;;;;;;;;;5044403;28;20036;-78
2024/01/19 05:30:09;;;;;;;7.45;5.10;;;;;;;;;;5044148;28;20031;-77
2024/01/19 05:32:34;;;;;;;13.32;8.32;;;;;;;;;;5059482;28;20119;-77
2024/01/19 05:35:00;;;;;;;14.10;9.27;;;;;;;;;;5043979;28;20031;-79
2024/01/19 05:37:26;;;;;;;14.35;9.30;;;;;;;;;;5061280;28;20020;-78
2024/01/19 05:39:51;;;;;;;13.77;9.57;;;;;;;;;;5063199;28;21059;-78
2024/01/19 05:42:17;;;;;;;15.43;10.38;;;;;;;;;;5063017;28;20071;-78
2024/01/19 05:44:42;;;;;;;14.93;13.15;;;;;;;;;;5065379;28;20790;-79
2024/01/19 05:47:07;;;;;;;20.65;16.23;;;;;;;;;;5046271;28;20054;-77
2024/01/19 05:49:33;;;;;;;18.20;15.25;;;;;;;;;;5061747;28;20365;-76
2024/01/19 05:51:58;;;;;;;20.92;17.55;;;;;;;;;;5063476;28;20036;-77
2024/01/19 05:54:24;;;;;;;23.33;19.23;;;;;;;;;;5060732;28;20017;-79
2024/01/19 05:56:49;;;;;;;19.10;14.75;;;;;;;;;;5064079;28;20044;-77
2024/01/19 05:59:15;;;;;;;23.25;18.25;;;;;;;;;;5064688;28;20034;-77
2024/01/19 06:01:40;;;;;;;19.65;16.05;;;;;;;;;;5066919;28;20107;-77
2024/01/19 06:04:05;;;;;;;25.45;21.77;;;;;;;;;;5075485;28;20036;-78
2024/01/19 06:06:31;;;;;;;70.40;62.83;;;;;;;;;;5064505;28;20040;-77
2024/01/19 06:08:56;;;;;;;44.28;39.88;;;;;;;;;;5051884;28;20043;-76
2024/01/19 06:11:21;;;;;;;25.05;16.73;;;;;;;;;;5051249;28;20051;-76
2024/01/19 06:13:47;;;;;;;17.65;15.45;;;;;;;;;;5052493;28;20507;-76
2024/01/19 06:16:13;;;;;;;20.83;17.67;;;;;;;;;;5052252;28;20477;-75
2024/01/19 06:18:38;;;;;;;29.10;25.75;;;;;;;;;;5042814;28;20020;-75
2024/01/19 06:21:08;;;;;;;33.47;25.80;;;;;;;;;;5063196;28;20364;-78
2024/01/19 06:23:34;;;;;;;130.77;116.40;;;;;;;;;;5064084;28;20026;-76
2024/01/19 06:25:59;;;;;;;47.40;40.60;;;;;;;;;;5067467;28;20028;-77
2024/01/19 06:28:24;;;;;;;359.13;273.92;;;;;;;;;;5063022;28;20036;-76
2024/01/19 06:30:49;;;;;;;532.35;441.60;;;;;;;;;;5063651;28;20193;-76
2024/01/19 06:33:15;;;;;;;178.13;135.63;;;;;;;;;;5064614;28;20378;-75
2024/01/19 06:35:40;;;;;;;82.57;58.95;;;;;;;;;;5068293;28;20043;-77
2024/01/19 06:38:05;;;;;;;251.00;192.93;;;;;;;;;;5072406;28;20028;-76
2024/01/19 06:40:31;;;;;;;82.95;61.78;;;;;;;;;;5075293;28;20028;-76
2024/01/19 06:42:56;;;;;;;107.90;79.20;;;;;;;;;;5047070;28;20036;-76
2024/01/19 06:45:22;;;;;;;60.65;48.03;;;;;;;;;;5064987;28;20036;-76
2024/01/19 06:47:47;;;;;;;40.97;36.55;;;;;;;;;;5072273;28;20039;-77
2024/01/19 06:50:13;;;;;;;42.22;37.63;;;;;;;;;;5074145;28;20036;-75
2024/01/19 06:52:39;;;;;;;144.50;127.03;;;;;;;;;;5075301;28;20031;-79
2024/01/19 06:55:05;;;;;;;34.33;26.15;;;;;;;;;;5076662;28;20031;-79
2024/01/19 06:57:30;;;;;;;17.42;10.25;;;;;;;;;;5077628;28;20032;-78
2024/01/19 06:59:55;;;;;;;12.93;6.50;;;;;;;;;;5066140;28;20035;-77
2024/01/19 07:02:21;;;;;;;13.07;5.57;;;;;;;;;;5071361;28;20043;-76
2024/01/19 07:04:48;;;;;;;11.20;5.97;;;;;;;;;;5077084;28;20447;-76
2024/01/19 07:07:13;;;;;;;14.18;6.75;;;;;;;;;;5064135;28;20051;-76
2024/01/19 07:09:38;;;;;;;14.35;7.93;;;;;;;;;;5073577;28;20423;-77
2024/01/19 07:12:04;;;;;;;20.08;10.35;;;;;;;;;;5066666;28;20485;-76
2024/01/19 07:14:29;;;;;;;17.25;11.07;;;;;;;;;;5065898;28;20058;-76
2024/01/19 07:16:55;;;;;;;17.80;11.55;;;;;;;;;;5069962;28;20130;-78
2024/01/19 07:19:20;;;;;;;18.55;11.20;;;;;;;;;;5069445;28;20044;-76
2024/01/19 07:21:46;;;;;;;13.65;9.07;;;;;;;;;;5076379;28;20036;-76
2024/01/19 07:24:12;;;;;;;11.23;5.80;;;;;;;;;;5078376;28;20033;-76
2024/01/19 07:26:37;;;;;;;17.08;8.10;;;;;;;;;;5069900;28;20024;-76
2024/01/19 07:29:07;;;;;;;12.63;7.22;;;;;;;;;;5072977;28;20035;-77
2024/01/19 07:31:33;;;;;;;13.27;8.45;;;;;;;;;;5076498;28;20048;-77
2024/01/19 07:33:58;;;;;;;18.40;10.95;;;;;;;;;;5061411;28;20020;-78
2024/01/19 07:36:23;;;;;;;12.38;6.60;;;;;;;;;;5078548;28;20106;-77
2024/01/19 07:38:49;;;;;;;14.25;5.85;;;;;;;;;;5078009;28;20097;-78
2024/01/19 07:41:14;;;;;;;12.90;6.15;;;;;;;;;;5075940;28;20028;-79
2024/01/19 07:43:39;;;;;;;11.43;5.78;;;;;;;;;;5070067;28;20091;-78
2024/01/19 07:46:05;;;;;;;19.90;9.15;;;;;;;;;;5076695;28;20028;-78
2024/01/19 07:48:31;;;;;;;16.00;8.25;;;;;;;;;;5078089;28;20016;-82
2024/01/19 07:50:56;;;;;;;15.63;8.45;;;;;;;;;;5078618;28;20447;-78
2024/01/19 07:53:22;;;;;;;13.48;5.38;;;;;;;;;;5077827;28;20039;-79
2024/01/19 07:55:47;;;;;;;13.85;5.95;;;;;;;;;;5072550;28;20466;-79
2024/01/19 07:58:12;;;;;;;14.38;6.18;;;;;;;;;;5073632;28;20340;-78
2024/01/19 08:00:38;;;;;;;22.75;14.60;;;;;;;;;;5079141;28;20630;-79
2024/01/19 08:03:04;;;;;;;13.38;7.47;;;;;;;;;;5074056;28;20370;-79
2024/01/19 08:05:29;;;;;;;17.00;9.43;;;;;;;;;;5065893;28;20025;-78
2024/01/19 08:07:54;;;;;;;22.65;11.98;;;;;;;;;;5062617;28;20473;-78
2024/01/19 08:10:20;;;;;;;16.45;8.48;;;;;;;;;;5059555;28;20741;-75
2024/01/19 08:12:45;;;;;;;54.00;30.88;;;;;;;;;;5067608;28;20152;-78
2024/01/19 08:15:10;;;;;;;55.15;34.10;;;;;;;;;;5073609;28;20039;-79
2024/01/19 08:17:57;;;;;;;26.30;17.75;;;;;;;;;;5055771;28;20039;-76
2024/01/19 08:20:24;;;;;;;17.15;10.00;;;;;;;;;;5065560;28;20762;-77
2024/01/19 08:22:49;;;;;;;14.27;6.60;;;;;;;;;;5062557;28;20067;-75
2024/01/19 08:25:15;;;;;;;16.83;12.13;;;;;;;;;;5073234;28;20051;-77
2024/01/19 08:27:41;;;;;;;16.08;8.35;;;;;;;;;;5078423;28;20147;-78
2024/01/19 08:30:06;;;;;;;14.95;6.03;;;;;;;;;;5056580;28;20028;-79
2024/01/19 08:32:32;;;;;;;12.88;6.82;;;;;;;;;;5065905;28;20788;-76
2024/01/19 08:34:57;;;;;;;13.07;5.85;;;;;;;;;;5056635;28;20039;-81
2024/01/19 08:37:22;;;;;;;11.35;5.85;;;;;;;;;;5070319;28;20032;-83
2024/01/19 08:39:48;;;;;;;30.92;21.70;;;;;;;;;;5075564;28;20028;-80
2024/01/19 08:42:13;;;;;;;23.10;14.13;;;;;;;;;;5077689;28;20032;-77
2024/01/19 08:44:42;;;;;;;13.50;4.97;;;;;;;;;;5077611;28;20084;-82
2024/01/19 08:47:08;;;;;;;15.98;9.60;;;;;;;;;;5063190;28;20058;-82
2024/01/19 08:49:33;;;;;;;15.77;10.25;;;;;;;;;;5071514;28;20064;-76
2024/01/19 08:51:58;;;;;;;14.90;10.35;;;;;;;;;;5061967;28;20027;-76
2024/01/19 08:54:24;;;;;;;20.35;10.70;;;;;;;;;;5067809;28;20017;-77
2024/01/19 08:56:49;;;;;;;18.95;14.38;;;;;;;;;;5075207;28;20028;-73
2024/01/19 08:59:17;;;;;;;27.00;18.52;;;;;;;;;;5060023;28;20026;-77
2024/01/19 09:01:44;;;;;;;30.13;17.33;;;;;;;;;;5075166;28;20093;-75
2024/01/19 09:04:09;;;;;;;39.10;30.20;;;;;;;;;;5063474;28;20082;-75
2024/01/19 09:06:34;;;;;;;14.75;8.65;;;;;;;;;;5075621;28;20028;-77
2024/01/19 09:09:03;;;;;;;22.38;16.52;;;;;;;;;;5077846;28;20089;-78
2024/01/19 09:11:29;;;;;;;13.75;9.27;;;;;;;;;;5067091;28;20028;-75
2024/01/19 09:13:54;;;;;;;15.25;9.43;;;;;;;;;;5064521;28;20428;-79
2024/01/19 09:16:19;;;;;;;13.98;9.98;;;;;;;;;;5079395;28;20428;-81
2024/01/19 09:18:45;;;;;;;12.23;10.45;;;;;;;;;;5079874;28;20043;-77
2024/01/19 09:21:15;;;;;;;13.02;7.25;;;;;;;;;;5078565;28;20486;-75
2024/01/19 09:23:41;;;;;;;12.77;6.68;;;;;;;;;;5074219;28;20103;-78
2024/01/19 09:26:06;;;;;;;19.00;13.43;;;;;;;;;;5066632;28;20531;-79
2024/01/19 09:28:31;;;;;;;12.98;7.28;;;;;;;;;;5074740;28;20074;-77
2024/01/19 09:30:57;;;;;;;7.00;4.25;;;;;;;;;;4938450;28;22704;-77
2024/01/19 09:33:44;;;;;;;9.82;6.00;;;;;;;;;;5078996;28;20047;-75
2024/01/19 09:36:28;;;;;;;11.95;8.30;;;;;;;;;;5007730;28;20104;-77
2024/01/19 09:38:54;;;;;;;8.68;5.82;;;;;;;;;;5000848;28;20030;-75
2024/01/19 09:41:45;;;;;;;26.55;17.83;;;;;;;;;;5010240;28;20412;-76
2024/01/19 09:44:22;;;;;;;15.05;7.57;;;;;;;;;;4951160;28;20090;-79
2024/01/19 09:47:25;;;;;;;34.13;19.92;;;;;;;;;;4951831;28;20134;-79
2024/01/19 09:50:02;;;;;;;33.83;20.10;;;;;;;;;;4937666;28;20162;-79
2024/01/19 09:52:46;;;;;;;35.60;19.83;;;;;;;;;;4944491;28;20755;-76
2024/01/19 09:55:15;;;;;;;28.13;16.90;;;;;;;;;;4942582;28;20046;-76
2024/01/19 09:58:02;;;;;;;17.92;11.88;;;;;;;;;;4945020;28;20776;-77
2024/01/19 10:00:28;;;;;;;39.97;24.33;;;;;;;;;;4944839;28;20038;-78
2024/01/19 10:02:54;;;;;;;49.72;26.70;;;;;;;;;;4942045;28;20053;-78
2024/01/19 10:05:20;;;;;;;25.60;14.68;;;;;;;;;;4947954;28;20463;-76
2024/01/19 10:07:46;;;;;;;22.60;14.25;;;;;;;;;;4979986;28;20049;-76
2024/01/19 10:10:12;;;;;;;21.48;13.38;;;;;;;;;;4990825;28;20036;-76
2024/01/19 10:12:38;;;;;;;28.30;18.60;;;;;;;;;;4993991;28;20037;-78
2024/01/19 10:15:13;;;;;;;22.90;16.02;;;;;;;;;;4992536;28;20107;-78
2024/01/19 10:17:39;;;;;;;10.60;6.13;;;;;;;;;;4996930;28;20036;-78
2024/01/19 10:20:06;;;;;;;11.73;6.45;;;;;;;;;;4993809;28;20034;-77
2024/01/19 10:22:32;;;;;;;9.95;4.85;;;;;;;;;;5061497;28;20024;-76
2024/01/19 10:25:08;;;;;;;12.68;5.85;;;;;;;;;;5056199;28;20028;-77
2024/01/19 10:27:38;;;;;;;12.27;6.90;;;;;;;;;;5067785;28;20152;-77
2024/01/19 10:30:11;;;;;;;12.15;9.23;;;;;;;;;;5061159;28;20030;-76
2024/01/19 10:32:40;;;;;;;7.97;4.80;;;;;;;;;;5059180;28;20487;-76
2024/01/19 10:35:10;;;;;;;10.85;5.55;;;;;;;;;;5067214;28;20123;-76
2024/01/19 10:37:36;;;;;;;11.65;6.80;;;;;;;;;;5077811;28;20100;-80
2024/01/19 10:40:14;;;;;;;37.10;27.02;;;;;;;;;;5078095;28;20040;-76
2024/01/19 10:42:40;;;;;;;29.17;18.47;;;;;;;;;;5080498;28;20028;-76
2024/01/19 10:45:16;;;;;;;10.63;7.20;;;;;;;;;;5077467;28;20479;-76
2024/01/19 10:47:42;;;;;;;12.68;8.20;;;;;;;;;;5078023;28;20059;-76
2024/01/19 10:50:08;;;;;;;15.23;10.43;;;;;;;;;;5076699;28;20319;-77
2024/01/19 10:52:34;;;;;;;14.98;10.15;;;;;;;;;;5078436;28;20028;-79
2024/01/19 10:55:02;;;;;;;8.95;6.80;;;;;;;;;;5080153;28;20056;-76
2024/01/19 10:57:27;;;;;;;13.10;7.35;;;;;;;;;;5081151;28;20488;-77
2024/01/19 10:59:53;;;;;;;12.07;9.23;;;;;;;;;;5078670;28;20044;-78
2024/01/19 11:02:18;;;;;;;11.18;7.88;;;;;;;;;;5062966;28;20020;-82
2024/01/19 11:04:44;;;;;;;11.55;7.20;;;;;;;;;;5077278;28;20120;-79
2024/01/19 11:07:09;;;;;;;18.05;12.95;;;;;;;;;;5069275;28;20028;-78
2024/01/19 11:09:35;;;;;;;11.68;8.52;;;;;;;;;;5061284;28;20027;-78
2024/01/19 11:12:02;;;;;;;8.23;5.15;;;;;;;;;;5063805;28;20062;-75
2024/01/19 11:14:28;;;;;;;8.88;5.95;;;;;;;;;;5063198;28;20427;-75
2024/01/19 11:16:54;;;;;;;9.00;4.00;;;;;;;;;;5063322;28;20017;-78
2024/01/19 11:19:20;;;;;;;6.70;4.35;;;;;;;;;;5042430;28;20030;-79
2024/01/19 11:21:46;;;;;;;12.88;11.20;;;;;;;;;;5049714;28;20040;-74
2024/01/19 11:24:14;;;;;;;6.93;4.18;;;;;;;;;;5053598;28;20356;-75
2024/01/19 11:26:45;;;;;;;7.80;3.85;;;;;;;;;;5067100;28;20024;-77
2024/01/19 11:29:15;;;;;;;8.70;6.03;;;;;;;;;;5071518;28;20028;-78
2024/01/19 11:31:41;;;;;;;8.98;5.15;;;;;;;;;;5071123;28;20485;-77
2024/01/19 11:34:06;;;;;;;7.65;5.38;;;;;;;;;;5066192;28;20020;-75
2024/01/19 11:36:43;;;;;;;8.45;5.90;;;;;;;;;;5064304;28;20028;-77
2024/01/19 11:39:09;;;;;;;8.75;5.47;;;;;;;;;;5064411;28;20048;-80
2024/01/19 11:41:35;;;;;;;8.68;5.50;;;;;;;;;;5066394;28;20064;-76
2024/01/19 11:44:04;;;;;;;9.48;5.82;;;;;;;;;;5055673;28;20067;-77
2024/01/19 11:46:29;;;;;;;;;;;;;;;;;;5057577;28;20308;-75
2024/01/19 11:48:54;;;;;;;6.97;4.30;;;;;;;;;;5053165;28;20349;-76
2024/01/19 11:51:33;;;;;;;5.88;3.60;;;;;;;;;;5058943;28;20028;-77
2024/01/19 11:54:05;;;;;;;12.32;7.95;;;;;;;;;;5067598;28;20060;-76
2024/01/19 11:56:31;;;;;;;8.18;5.95;;;;;;;;;;5066915;28;20028;-75
2024/01/19 11:59:11;;;;;;;17.58;8.82;;;;;;;;;;5067995;28;20032;-82
2024/01/19 12:04:40;;;;;;;10.68;6.97;;;;;;;;;;5063418;28;20050;-77
2024/01/19 12:07:06;;;;;;;22.58;15.30;;;;;;;;;;5064697;28;20032;-76
2024/01/19 12:09:33;;;;;;;30.15;21.25;;;;;;;;;;5064387;28;20050;-76
2024/01/19 12:11:58;;;;;;;17.33;12.25;;;;;;;;;;5071198;28;20370;-75
2024/01/19 12:14:23;;;;;;;10.27;6.13;;;;;;;;;;5066486;28;20119;-77
2024/01/19 12:16:50;;;;;;;19.98;10.93;;;;;;;;;;5064230;28;20031;-77
2024/01/19 12:19:15;;;;;;;10.35;5.10;;;;;;;;;;5064605;28;20031;-77
2024/01/19 12:21:40;;;;;;;13.10;7.70;;;;;;;;;;5063449;28;20032;-80
2024/01/19 12:24:07;;;;;;;9.20;6.07;;;;;;;;;;5067090;28;20040;-79
2024/01/19 12:26:33;;;;;;;9.40;4.57;;;;;;;;;;5047254;28;20094;-76
2024/01/19 12:28:59;;;;;;;13.63;6.00;;;;;;;;;;5058896;28;20029;-80
2024/01/19 12:31:36;;;;;;;9.50;5.90;;;;;;;;;;5066245;28;20119;-79
2024/01/19 12:34:15;;;;;;;13.38;6.63;;;;;;;;;;5053111;28;20078;-79
2024/01/19 12:36:41;;;;;;;13.98;9.80;;;;;;;;;;5039688;28;20131;-76
2024/01/19 12:39:11;;;;;;;12.10;6.15;;;;;;;;;;5050476;28;20120;-77
2024/01/19 12:41:37;;;;;;;15.32;9.77;;;;;;;;;;5052134;28;20032;-79
2024/01/19 12:44:02;;;;;;;11.38;6.70;;;;;;;;;;5053901;28;20471;-78
2024/01/19 12:46:28;;;;;;;21.48;12.82;;;;;;;;;;5034689;28;20032;-78
2024/01/19 12:49:13;;;;;;;8.95;6.13;;;;;;;;;;5053344;28;20024;-76
2024/01/19 12:51:41;;;;;;;9.85;5.78;;;;;;;;;;5046466;28;20040;-79
2024/01/19 12:54:07;;;;;;;7.15;4.65;;;;;;;;;;5055655;28;20028;-76
2024/01/19 12:56:32;;;;;;;13.05;10.20;;;;;;;;;;5056279;28;20021;-77
2024/01/19 12:59:11;;;;;;;12.40;8.85;;;;;;;;;;5054704;28;20039;-81
2024/01/19 13:01:40;;;;;;;12.15;6.63;;;;;;;;;;5057014;28;20083;-75
2024/01/19 13:04:06;;;;;;;13.48;9.20;;;;;;;;;;5055986;28;20024;-78
2024/01/19 13:06:31;;;;;;;14.60;9.65;;;;;;;;;;5057163;28;20029;-75
2024/01/19 13:08:57;;;;;;;11.65;6.40;;;;;;;;;;5055350;28;20025;-80
2024/01/19 13:11:25;;;;;;;9.10;4.07;;;;;;;;;;5055608;28;20047;-79
2024/01/19 13:14:00;;;;;;;10.40;6.38;;;;;;;;;;5055187;28;20124;-79
2024/01/19 13:16:25;;;;;;;13.20;7.95;;;;;;;;;;5052720;28;20053;-76
2024/01/19 13:18:59;;;;;;;10.63;6.30;;;;;;;;;;5054692;28;20055;-77
2024/01/19 13:21:24;;;;;;;10.55;5.18;;;;;;;;;;5055703;28;20028;-76
2024/01/19 13:23:49;;;;;;;10.70;6.43;;;;;;;;;;5055161;28;21215;-77
2024/01/19 13:26:19;;;;;;;9.52;5.07;;;;;;;;;;5052963;28;20024;-78
2024/01/19 13:28:45;;;;;;;12.40;9.40;;;;;;;;;;5055165;28;20028;-76
2024/01/19 13:31:10;;;;;;;11.93;8.27;;;;;;;;;;5056546;28;20040;-77
2024/01/19 13:33:36;;;;;;;23.90;11.52;;;;;;;;;;5078819;28;20051;-76
2024/01/19 13:36:01;;;;;;;13.02;9.63;;;;;;;;;;5080931;28;20088;-76
2024/01/19 13:38:26;;;;;;;20.58;14.85;;;;;;;;;;5063673;28;20039;-77
2024/01/19 13:40:52;;;;;;;17.50;15.25;;;;;;;;;;5064655;28;20124;-78
2024/01/19 13:43:18;;;;;;;13.45;8.93;;;;;;;;;;5050854;28;20033;-74
2024/01/19 13:45:43;;;;;;;11.68;6.93;;;;;;;;;;5070979;28;20028;-74
2024/01/19 13:48:08;;;;;;;11.15;6.85;;;;;;;;;;5074101;28;20063;-78
2024/01/19 13:50:34;;;;;;;13.15;5.60;;;;;;;;;;5039856;28;20443;-78
2024/01/19 13:52:59;;;;;;;29.33;22.15;;;;;;;;;;5051163;28;20131;-78
2024/01/19 13:55:24;;;;;;;15.20;7.50;;;;;;;;;;5068702;28;20115;-77
2024/01/19 13:57:50;;;;;;;39.03;17.52;;;;;;;;;;5076007;28;20029;-77
2024/01/19 14:00:15;;;;;;;10.70;7.00;;;;;;;;;;5076037;28;20061;-76
2024/01/19 14:02:41;;;;;;;12.05;6.78;;;;;;;;;;5076492;28;20031;-81
2024/01/19 14:05:07;;;;;;;13.35;10.07;;;;;;;;;;5079711;28;20119;-77
2024/01/19 14:07:33;;;;;;;14.52;12.23;;;;;;;;;;5077061;28;20032;-79
2024/01/19 14:09:59;;;;;;;16.73;14.30;;;;;;;;;;5075653;28;20028;-80
2024/01/19 14:12:24;;;;;;;18.48;15.68;;;;;;;;;;5064833;28;20024;-76
2024/01/19 14:14:49;;;;;;;18.17;16.15;;;;;;;;;;5063107;28;20439;-76
2024/01/19 14:17:15;;;;;;;20.65;18.55;;;;;;;;;;5051898;28;20060;-75
2024/01/19 14:19:40;;;;;;;21.50;18.85;;;;;;;;;;5051252;28;20120;-79
2024/01/19 14:22:06;;;;;;;24.85;22.25;;;;;;;;;;5056155;28;20028;-80
2024/01/19 14:24:31;;;;;;;26.35;23.55;;;;;;;;;;5068069;28;20024;-80